Time;durP1;ratioP1;P1;durP2;ratioP2;P2;SDS_P1;SDS_P2;PMS_P1;PMS_P2;Temp;Humidity;BMP_temperature;BMP_pressure;BME280_temperature;BME280_humidity;BME280_pressure;Samples;Min_cycle;Max_cycle;Signal;HPM_P1;HPM_P2
2022/04/19 00:04:18;;;;;;;11.73;5.25;;;;;;;;;;10436447;28;20041;-69
2022/04/19 00:09:21;;;;;;;10.20;5.40;;;;;;;;;;10399281;28;20054;-68
2022/04/19 00:14:24;;;;;;;8.63;5.60;;;;;;;;;;10400830;28;20084;-68
2022/04/19 00:19:28;;;;;;;9.23;5.15;;;;;;;;;;10438572;28;20045;-69
2022/04/19 00:24:30;;;;;;;11.02;5.90;;;;;;;;;;10439324;28;20072;-69
2022/04/19 00:29:34;;;;;;;6.55;4.90;;;;;;;;;;10435207;28;20136;-69
2022/04/19 00:34:37;;;;;;;6.88;5.47;;;;;;;;;;10430746;28;20042;-69
2022/04/19 00:39:39;;;;;;;9.27;5.13;;;;;;;;;;10436029;28;20274;-68
2022/04/19 00:44:43;;;;;;;8.93;5.30;;;;;;;;;;10437723;28;20053;-68
2022/04/19 00:49:47;;;;;;;7.72;5.25;;;;;;;;;;10436863;28;20053;-69
2022/04/19 00:54:49;;;;;;;9.18;5.75;;;;;;;;;;10437974;28;20042;-69
2022/04/19 00:59:54;;;;;;;8.25;5.45;;;;;;;;;;10438487;28;20095;-69
2022/04/19 01:04:56;;;;;;;5.80;5.25;;;;;;;;;;10436366;28;20034;-69
2022/04/19 01:09:59;;;;;;;7.28;4.90;;;;;;;;;;10436224;28;20057;-69
2022/04/19 01:15:06;;;;;;;9.30;6.00;;;;;;;;;;10434827;28;20037;-69
2022/04/19 01:20:10;;;;;;;8.02;5.82;;;;;;;;;;10434773;28;20248;-69
2022/04/19 01:25:13;;;;;;;9.77;5.90;;;;;;;;;;10434568;28;20241;-69
2022/04/19 01:30:19;;;;;;;8.40;4.97;;;;;;;;;;10435345;28;20348;-68
2022/04/19 01:35:22;;;;;;;6.18;4.93;;;;;;;;;;10434583;28;20049;-69
2022/04/19 01:40:25;;;;;;;6.90;5.43;;;;;;;;;;10435373;28;20053;-68
2022/04/19 01:45:30;;;;;;;6.90;5.65;;;;;;;;;;10433991;28;20057;-68
2022/04/19 01:50:32;;;;;;;7.83;5.60;;;;;;;;;;10434312;28;20096;-69
2022/04/19 01:55:36;;;;;;;11.20;5.97;;;;;;;;;;10429934;28;20038;-68
2022/04/19 02:00:38;;;;;;;8.82;5.72;;;;;;;;;;10393470;28;20045;-68
2022/04/19 02:05:41;;;;;;;8.88;5.30;;;;;;;;;;10409371;28;20095;-69
2022/04/19 02:10:44;;;;;;;5.78;5.18;;;;;;;;;;10435074;28;20053;-69
2022/04/19 02:15:47;;;;;;;10.32;5.18;;;;;;;;;;10434466;28;20072;-68
2022/04/19 02:20:49;;;;;;;9.20;5.05;;;;;;;;;;10433931;28;20052;-68
2022/04/19 02:25:55;;;;;;;6.97;5.43;;;;;;;;;;10432998;28;20037;-69
2022/04/19 02:30:57;;;;;;;;;;;;;;;;;;10447849;28;20100;-67
2022/04/19 02:35:59;;;;;;;8.50;5.85;;;;;;;;;;10435092;28;19917;-69
2022/04/19 02:41:04;;;;;;;7.25;5.70;;;;;;;;;;10433445;28;20092;-69
2022/04/19 02:46:07;;;;;;;10.73;6.03;;;;;;;;;;10433534;28;20049;-69
2022/04/19 02:51:09;;;;;;;10.27;6.15;;;;;;;;;;10433585;28;20355;-69
2022/04/19 02:56:12;;;;;;;8.00;5.82;;;;;;;;;;10407166;28;20045;-69
2022/04/19 03:01:15;;;;;;;8.88;6.00;;;;;;;;;;10432902;28;20072;-68
2022/04/19 03:06:17;;;;;;;8.10;5.63;;;;;;;;;;10433291;28;20080;-69
2022/04/19 03:11:21;;;;;;;8.63;5.78;;;;;;;;;;10432304;28;20041;-69
2022/04/19 03:16:24;;;;;;;6.95;5.30;;;;;;;;;;10433844;28;20065;-69
2022/04/19 03:21:26;;;;;;;5.68;5.10;;;;;;;;;;10432610;28;20042;-69
2022/04/19 03:31:50;;;;;;;9.75;5.32;;;;;;;;;;10433005;28;20049;-69
2022/04/19 03:36:52;;;;;;;17.13;6.50;;;;;;;;;;10422289;28;20049;-69
2022/04/19 03:41:57;;;;;;;8.48;6.20;;;;;;;;;;10430704;28;20061;-69
2022/04/19 03:47:09;;;;;;;8.88;5.88;;;;;;;;;;10421356;28;20228;-68
2022/04/19 03:52:11;;;;;;;10.55;5.88;;;;;;;;;;10444974;28;20045;-68
2022/04/19 03:57:17;;;;;;;10.82;5.90;;;;;;;;;;10395947;28;20041;-68
2022/04/19 04:02:20;;;;;;;;;;;;;;;;;;10441977;28;20053;-68
2022/04/19 04:07:22;;;;;;;19.08;6.93;;;;;;;;;;10430617;28;19917;-68
2022/04/19 04:12:26;;;;;;;11.00;7.20;;;;;;;;;;10431994;28;20076;-68
2022/04/19 04:17:28;;;;;;;11.40;6.97;;;;;;;;;;10436218;28;20045;-68
2022/04/19 04:22:30;;;;;;;11.57;7.45;;;;;;;;;;10439078;28;20049;-68
2022/04/19 04:27:34;;;;;;;12.50;7.88;;;;;;;;;;10439868;28;20053;-68
2022/04/19 04:32:37;;;;;;;9.13;6.47;;;;;;;;;;10439488;28;20042;-69
2022/04/19 04:37:39;;;;;;;11.65;8.05;;;;;;;;;;10437389;28;20053;-69
2022/04/19 04:42:43;;;;;;;8.43;6.20;;;;;;;;;;10438506;28;20064;-69
2022/04/19 04:53:05;;;;;;;12.38;7.85;;;;;;;;;;10437376;28;20057;-69
2022/04/19 04:58:10;;;;;;;10.20;6.68;;;;;;;;;;10438436;28;20087;-69
2022/04/19 05:03:12;;;;;;;12.32;7.63;;;;;;;;;;10437104;28;20045;-69
2022/04/19 05:08:16;;;;;;;8.25;5.63;;;;;;;;;;10436595;28;20234;-69
2022/04/19 05:13:20;;;;;;;10.07;5.63;;;;;;;;;;10433183;28;20336;-69
2022/04/19 05:18:22;;;;;;;7.75;4.57;;;;;;;;;;10436963;28;20264;-69
2022/04/19 05:23:24;;;;;;;4.90;3.78;;;;;;;;;;10436624;28;20368;-69
2022/04/19 05:28:28;;;;;;;7.85;4.10;;;;;;;;;;10434519;28;20061;-69
2022/04/19 05:33:30;;;;;;;6.10;4.13;;;;;;;;;;10436106;28;20057;-69
2022/04/19 05:38:33;;;;;;;8.65;4.63;;;;;;;;;;10435078;28;20056;-69
2022/04/19 05:43:37;;;;;;;10.50;5.63;;;;;;;;;;10431173;28;20049;-69
2022/04/19 05:48:40;;;;;;;7.55;5.82;;;;;;;;;;10436665;28;20071;-69
2022/04/19 05:53:43;;;;;;;10.90;5.68;;;;;;;;;;10435038;28;20052;-68
2022/04/19 05:58:46;;;;;;;10.88;6.60;;;;;;;;;;10434638;28;20037;-69
2022/04/19 06:09:12;;;;;;;9.65;6.40;;;;;;;;;;10449037;28;20099;-69
2022/04/19 06:14:16;;;;;;;11.73;6.57;;;;;;;;;;10448378;28;20037;-68
2022/04/19 06:19:18;;;;;;;10.48;6.40;;;;;;;;;;10431665;28;20037;-69
2022/04/19 06:24:20;;;;;;;12.30;6.93;;;;;;;;;;10434199;28;20045;-68
2022/04/19 06:29:25;;;;;;;8.35;5.60;;;;;;;;;;10432403;28;20080;-69
2022/04/19 06:34:27;;;;;;;11.07;5.78;;;;;;;;;;10433529;28;20045;-69
2022/04/19 06:39:29;;;;;;;6.10;5.45;;;;;;;;;;10431627;28;20068;-69
2022/04/19 06:44:34;;;;;;;9.57;6.10;;;;;;;;;;10433560;28;20067;-70
2022/04/19 06:49:37;;;;;;;8.70;5.78;;;;;;;;;;10433524;28;20045;-70
2022/04/19 06:54:40;;;;;;;8.88;5.97;;;;;;;;;;10429508;28;20053;-70
2022/04/19 06:59:43;;;;;;;7.82;5.32;;;;;;;;;;10433251;28;20064;-69
2022/04/19 07:04:46;;;;;;;10.68;5.90;;;;;;;;;;10433222;28;20057;-69
2022/04/19 07:09:49;;;;;;;11.57;5.70;;;;;;;;;;10432746;28;20061;-69
2022/04/19 07:14:53;;;;;;;6.65;4.70;;;;;;;;;;10433027;28;20351;-71
2022/04/19 07:30:41;;;;;;;3.95;3.03;;;;;;;;;;10432154;28;20053;-69
2022/04/19 07:35:43;;;;;;;3.60;2.75;;;;;;;;;;10432621;28;20053;-71
2022/04/19 07:40:46;;;;;;;4.03;2.00;;;;;;;;;;10415967;28;20046;-70
2022/04/19 07:45:50;;;;;;;2.75;2.55;;;;;;;;;;10414988;28;20583;-69
2022/04/19 07:50:52;;;;;;;8.80;4.75;;;;;;;;;;10436103;28;20053;-69
2022/04/19 07:55:57;;;;;;;5.55;3.95;;;;;;;;;;10439906;28;20333;-71
2022/04/19 08:01:01;;;;;;;4.70;3.70;;;;;;;;;;10439357;28;20287;-69
2022/04/19 08:06:04;;;;;;;4.57;4.17;;;;;;;;;;10439977;28;20050;-69
2022/04/19 08:11:06;;;;;;;5.85;4.60;;;;;;;;;;10439591;28;20298;-69
2022/04/19 08:16:10;;;;;;;4.40;4.00;;;;;;;;;;10439259;28;20041;-69
2022/04/19 08:21:13;;;;;;;4.05;3.72;;;;;;;;;;10438928;28;20336;-69
2022/04/19 08:26:18;;;;;;;3.28;2.90;;;;;;;;;;10437761;28;20053;-69
2022/04/19 08:31:21;;;;;;;3.20;2.90;;;;;;;;;;10439127;28;20430;-68
2022/04/19 08:36:25;;;;;;;3.13;2.92;;;;;;;;;;10440132;28;20351;-68
2022/04/19 08:41:28;;;;;;;2.30;1.83;;;;;;;;;;10439050;28;20060;-69
2022/04/19 08:46:32;;;;;;;2.05;1.40;;;;;;;;;;10453413;28;20053;-71
2022/04/19 08:51:37;;;;;;;3.72;1.60;;;;;;;;;;10439591;28;20053;-69
2022/04/19 09:02:05;;;;;;;2.05;1.70;;;;;;;;;;10452884;28;20061;-69
2022/04/19 09:07:08;;;;;;;5.18;2.20;;;;;;;;;;10438012;28;20076;-72
2022/04/19 09:12:12;;;;;;;2.42;2.33;;;;;;;;;;10437353;28;20053;-70
2022/04/19 09:17:17;;;;;;;2.00;1.90;;;;;;;;;;10437601;28;20257;-68
2022/04/19 09:22:26;;;;;;;2.90;1.42;;;;;;;;;;10411882;28;20249;-70
2022/04/19 09:27:33;;;;;;;5.10;2.42;;;;;;;;;;10420906;28;20056;-71
2022/04/19 09:32:37;;;;;;;4.32;2.53;;;;;;;;;;10437367;28;20226;-69
2022/04/19 09:37:48;;;;;;;2.60;2.40;;;;;;;;;;10435508;28;20042;-68
2022/04/19 09:42:54;;;;;;;3.00;2.50;;;;;;;;;;10435907;28;20226;-70
2022/04/19 09:47:58;;;;;;;4.75;2.67;;;;;;;;;;10450308;28;20033;-70
2022/04/19 09:53:00;;;;;;;2.70;2.50;;;;;;;;;;10435242;28;20044;-71
2022/04/19 09:58:03;;;;;;;7.43;3.05;;;;;;;;;;10435709;28;20057;-71
2022/04/19 10:08:28;;;;;;;4.93;3.10;;;;;;;;;;10436413;28;20053;-70
2022/04/19 10:13:33;;;;;;;5.97;3.20;;;;;;;;;;10435627;28;20046;-71
2022/04/19 10:18:37;;;;;;;4.10;3.80;;;;;;;;;;10434597;28;20041;-69
2022/04/19 10:23:40;;;;;;;4.90;4.50;;;;;;;;;;10434041;28;20332;-70
2022/04/19 10:28:45;;;;;;;4.90;4.50;;;;;;;;;;10434546;28;20398;-67
2022/04/19 10:33:50;;;;;;;5.30;4.45;;;;;;;;;;10434582;28;20064;-69
2022/04/19 10:39:10;;;;;;;;;;;;;;;;;;10435103;28;20265;-69
2022/04/19 10:44:32;;;;;;;4.88;4.35;;;;;;;;;;10432545;28;19925;-69
2022/04/19 10:50:00;;;;;;;4.97;4.57;;;;;;;;;;10434723;28;20057;-71
2022/04/19 10:55:06;;;;;;;4.72;4.40;;;;;;;;;;10435144;28;20209;-71
2022/04/19 11:00:25;;;;;;;4.93;4.53;;;;;;;;;;10432205;28;20110;-69
2022/04/19 11:05:43;;;;;;;5.05;4.15;;;;;;;;;;10393927;28;20100;-68
2022/04/19 11:10:46;;;;;;;4.45;4.15;;;;;;;;;;10447690;28;20051;-69
2022/04/19 11:15:57;;;;;;;4.15;3.85;;;;;;;;;;10432028;28;20060;-70
2022/04/19 11:21:03;;;;;;;5.47;4.25;;;;;;;;;;10428970;28;20050;-71
2022/04/19 11:26:08;;;;;;;4.45;4.10;;;;;;;;;;10456029;28;20037;-69
2022/04/19 11:31:11;;;;;;;;;;;;;;;;;;10446878;28;20049;-68
2022/04/19 11:36:16;;;;;;;5.45;4.95;;;;;;;;;;10424827;28;19917;-70
2022/04/19 11:46:45;;;;;;;5.80;5.30;;;;;;;;;;10447189;28;20072;-68
2022/04/19 11:51:51;;;;;;;5.22;4.82;;;;;;;;;;10459666;28;20084;-68
2022/04/19 11:56:54;;;;;;;5.32;4.35;;;;;;;;;;10447092;28;20041;-69
2022/04/19 12:01:57;;;;;;;6.88;4.85;;;;;;;;;;10446967;28;20053;-69
2022/04/19 12:07:05;;;;;;;5.13;4.57;;;;;;;;;;10444785;28;20048;-70
2022/04/19 12:12:08;;;;;;;5.43;4.93;;;;;;;;;;10460340;28;20287;-68
2022/04/19 12:17:20;;;;;;;5.95;5.40;;;;;;;;;;10446361;28;20057;-68
2022/04/19 12:22:25;;;;;;;5.90;5.30;;;;;;;;;;10459016;28;20072;-68
2022/04/19 12:27:28;;;;;;;6.05;5.32;;;;;;;;;;10446344;28;20049;-69
2022/04/19 12:32:50;;;;;;;6.13;5.63;;;;;;;;;;10447040;28;20072;-70
2022/04/19 12:38:08;;;;;;;5.68;5.18;;;;;;;;;;10453488;28;20049;-69
2022/04/19 12:43:14;;;;;;;6.45;5.85;;;;;;;;;;10438455;28;20054;-70
2022/04/19 12:48:20;;;;;;;6.72;6.07;;;;;;;;;;10450747;28;20175;-70
2022/04/19 12:53:24;;;;;;;6.40;5.90;;;;;;;;;;10437344;28;20053;-68
2022/04/19 12:58:27;;;;;;;9.10;6.78;;;;;;;;;;10438124;28;20041;-70
2022/04/19 13:03:30;;;;;;;6.65;6.05;;;;;;;;;;10437765;28;20176;-71
2022/04/19 13:13:54;;;;;;;7.03;6.43;;;;;;;;;;10437636;28;20056;-72
2022/04/19 13:18:56;;;;;;;6.82;6.32;;;;;;;;;;10436065;28;20049;-70
2022/04/19 13:24:01;;;;;;;7.65;6.55;;;;;;;;;;10437498;28;20393;-70
2022/04/19 13:29:04;;;;;;;7.70;7.10;;;;;;;;;;10449687;28;20045;-71
2022/04/19 13:34:07;;;;;;;9.55;8.48;;;;;;;;;;10434271;28;20053;-68
2022/04/19 13:39:11;;;;;;;8.20;6.30;;;;;;;;;;10414627;28;20041;-67
2022/04/19 13:44:14;;;;;;;8.85;7.20;;;;;;;;;;10402404;28;20057;-70
2022/04/19 13:49:17;;;;;;;7.13;6.43;;;;;;;;;;10434656;28;20045;-68
2022/04/19 13:54:21;;;;;;;7.30;6.60;;;;;;;;;;10436699;28;20499;-69
2022/04/19 13:59:23;;;;;;;7.68;6.97;;;;;;;;;;10434930;28;20049;-69
2022/04/19 14:04:25;;;;;;;7.60;7.00;;;;;;;;;;10434616;28;20045;-71
2022/04/19 14:09:29;;;;;;;7.07;6.47;;;;;;;;;;10433941;28;20041;-68
2022/04/19 14:14:32;;;;;;;12.40;6.93;;;;;;;;;;10436603;28;20390;-68
2022/04/19 14:19:34;;;;;;;12.70;10.82;;;;;;;;;;10430702;28;20108;-67
2022/04/19 14:24:38;;;;;;;50.28;35.53;;;;;;;;;;10424933;28;20041;-68
2022/04/19 14:35:00;;;;;;;7.72;7.03;;;;;;;;;;10432914;28;20404;-68
2022/04/19 14:40:04;;;;;;;13.85;7.68;;;;;;;;;;10429920;28;20064;-68
2022/04/19 14:45:08;;;;;;;14.48;10.50;;;;;;;;;;10432948;28;20250;-69
2022/04/19 14:50:11;;;;;;;12.20;8.57;;;;;;;;;;10434373;28;20049;-70
2022/04/19 14:55:15;;;;;;;13.18;7.63;;;;;;;;;;10433655;28;20068;-68
2022/04/19 15:00:19;;;;;;;8.20;7.43;;;;;;;;;;10413374;28;20065;-68
2022/04/19 15:05:21;;;;;;;8.43;7.47;;;;;;;;;;10415978;28;20056;-69
2022/04/19 15:10:25;;;;;;;9.35;7.65;;;;;;;;;;10431740;28;20137;-68
2022/04/19 15:15:27;;;;;;;12.25;7.82;;;;;;;;;;10421266;28;20360;-70
2022/04/19 15:20:30;;;;;;;8.80;8.00;;;;;;;;;;10432641;28;20057;-68
2022/04/19 15:25:34;;;;;;;9.88;8.88;;;;;;;;;;10434060;28;20103;-68
2022/04/19 15:30:37;;;;;;;11.02;9.48;;;;;;;;;;10429568;28;20052;-68
2022/04/19 15:35:39;;;;;;;9.93;8.70;;;;;;;;;;10426148;28;20045;-69
2022/04/19 15:40:43;;;;;;;10.90;9.80;;;;;;;;;;10430020;28;20068;-67
2022/04/19 15:45:46;;;;;;;8.52;7.63;;;;;;;;;;10432632;28;20065;-69
2022/04/19 15:50:52;;;;;;;9.85;8.68;;;;;;;;;;10433088;28;20045;-68
2022/04/19 15:55:56;;;;;;;10.25;7.53;;;;;;;;;;10431920;28;20053;-68
2022/04/19 16:00:58;;;;;;;9.32;8.40;;;;;;;;;;10434415;28;20213;-69
2022/04/19 16:06:01;;;;;;;15.88;12.68;;;;;;;;;;10431442;28;20049;-70
2022/04/19 16:11:04;;;;;;;8.23;7.32;;;;;;;;;;10416688;28;20105;-70
2022/04/19 16:27:04;;;;;;;11.27;10.18;;;;;;;;;;10344633;28;20194;-71
2022/04/19 16:32:07;;;;;;;10.07;9.05;;;;;;;;;;10352688;28;20243;-70
2022/04/19 16:37:10;;;;;;;10.85;9.75;;;;;;;;;;10345721;28;20062;-69
2022/04/19 16:42:15;;;;;;;9.23;8.15;;;;;;;;;;10351812;28;20062;-70
2022/04/19 16:47:19;;;;;;;9.90;8.87;;;;;;;;;;10351741;28;20062;-69
2022/04/19 16:52:22;;;;;;;10.00;9.10;;;;;;;;;;10413954;28;20283;-68
2022/04/19 16:57:25;;;;;;;12.95;9.50;;;;;;;;;;10438920;28;20072;-68
2022/04/19 17:02:29;;;;;;;20.55;12.93;;;;;;;;;;10437729;28;20042;-69
2022/04/19 17:07:31;;;;;;;11.05;9.95;;;;;;;;;;10410501;28;20046;-69
2022/04/19 17:12:35;;;;;;;15.95;11.10;;;;;;;;;;10439034;28;20053;-72
2022/04/19 17:17:37;;;;;;;11.93;10.40;;;;;;;;;;10438475;28;20034;-69
2022/04/19 17:22:40;;;;;;;17.05;10.82;;;;;;;;;;10437317;28;20109;-70
2022/04/19 17:27:44;;;;;;;15.23;11.30;;;;;;;;;;10438085;28;20061;-71
2022/04/19 17:32:47;;;;;;;12.30;10.45;;;;;;;;;;10438406;28;20053;-70
2022/04/19 17:37:50;;;;;;;16.48;12.23;;;;;;;;;;10436741;28;20221;-70
2022/04/19 17:42:56;;;;;;;18.20;13.30;;;;;;;;;;10436092;28;20344;-68
2022/04/19 17:47:59;;;;;;;24.42;18.25;;;;;;;;;;10436876;28;20072;-70
2022/04/19 17:58:22;;;;;;;15.00;13.40;;;;;;;;;;10450779;28;20063;-70
2022/04/19 18:03:24;;;;;;;27.13;18.92;;;;;;;;;;10437516;28;20052;-70
2022/04/19 18:08:27;;;;;;;25.08;14.68;;;;;;;;;;10437355;28;20041;-71
2022/04/19 18:13:31;;;;;;;24.38;15.85;;;;;;;;;;10438122;28;20049;-69
2022/04/19 18:18:34;;;;;;;24.37;17.20;;;;;;;;;;10435857;28;20060;-69
2022/04/19 18:28:58;;;;;;;27.83;17.00;;;;;;;;;;10436595;28;20347;-70
2022/04/19 18:34:00;;;;;;;17.45;13.82;;;;;;;;;;10434086;28;20056;-70
2022/04/19 18:39:03;;;;;;;21.75;15.73;;;;;;;;;;10436668;28;20048;-68
2022/04/19 18:44:07;;;;;;;20.35;14.82;;;;;;;;;;10411635;28;20046;-69
2022/04/19 18:49:10;;;;;;;23.83;14.57;;;;;;;;;;10394749;28;20109;-70
2022/04/19 18:54:12;;;;;;;26.77;16.30;;;;;;;;;;10407164;28;20328;-69
2022/04/19 18:59:16;;;;;;;34.55;19.88;;;;;;;;;;10432958;28;20049;-71
2022/04/19 19:04:18;;;;;;;27.80;14.88;;;;;;;;;;10416039;28;20061;-70
2022/04/19 19:09:21;;;;;;;20.55;14.10;;;;;;;;;;10425445;28;20065;-71
2022/04/19 19:14:25;;;;;;;21.52;13.25;;;;;;;;;;10394071;28;20340;-69
2022/04/19 19:19:28;;;;;;;25.77;16.95;;;;;;;;;;10408614;28;20344;-68
2022/04/19 19:24:30;;;;;;;22.70;15.70;;;;;;;;;;10433589;28;20044;-70
2022/04/19 19:29:35;;;;;;;21.27;13.90;;;;;;;;;;10432531;28;20045;-67
2022/04/19 19:34:37;;;;;;;28.02;16.63;;;;;;;;;;10432592;28;20045;-70
2022/04/19 19:39:39;;;;;;;25.92;16.65;;;;;;;;;;10423706;28;20383;-69
2022/04/19 19:44:44;;;;;;;24.23;16.35;;;;;;;;;;10400293;28;20065;-70
2022/04/19 19:49:46;;;;;;;28.85;15.57;;;;;;;;;;10437073;28;20331;-69
2022/04/19 19:54:48;;;;;;;21.73;14.25;;;;;;;;;;10440361;28;20045;-70
2022/04/19 19:59:52;;;;;;;27.70;15.32;;;;;;;;;;10441010;28;20052;-69
2022/04/19 20:04:56;;;;;;;21.63;15.73;;;;;;;;;;10439512;28;20367;-71
2022/04/19 20:09:58;;;;;;;17.27;12.98;;;;;;;;;;10439181;28;20058;-69
2022/04/19 20:15:02;;;;;;;15.38;10.95;;;;;;;;;;10432073;28;20041;-69
2022/04/19 20:20:06;;;;;;;10.95;8.68;;;;;;;;;;10423735;28;20037;-71
2022/04/19 20:25:09;;;;;;;16.73;11.20;;;;;;;;;;10439362;28;20041;-69
2022/04/19 20:30:13;;;;;;;14.68;11.18;;;;;;;;;;10439143;28;20092;-68
2022/04/19 20:35:16;;;;;;;17.35;12.75;;;;;;;;;;10440462;28;20045;-68
2022/04/19 20:40:19;;;;;;;14.45;9.80;;;;;;;;;;10438778;28;20064;-68
2022/04/19 20:45:24;;;;;;;8.93;5.80;;;;;;;;;;10440102;28;20069;-71
2022/04/19 20:50:27;;;;;;;7.60;6.75;;;;;;;;;;10437428;28;20213;-70
2022/04/19 20:55:29;;;;;;;9.35;6.80;;;;;;;;;;10436618;28;20053;-70
2022/04/19 21:00:34;;;;;;;9.35;6.93;;;;;;;;;;10437622;28;20037;-69
2022/04/19 21:05:36;;;;;;;12.18;7.22;;;;;;;;;;10411167;28;20064;-70
2022/04/19 21:10:39;;;;;;;9.48;7.43;;;;;;;;;;10438872;28;20049;-69
2022/04/19 21:15:43;;;;;;;8.02;7.05;;;;;;;;;;10439215;28;20349;-69
2022/04/19 21:20:45;;;;;;;12.55;7.38;;;;;;;;;;10438745;28;20053;-70
2022/04/19 21:25:47;;;;;;;10.07;8.20;;;;;;;;;;10439519;28;20049;-69
2022/04/19 21:30:52;;;;;;;7.80;7.00;;;;;;;;;;10437712;28;20045;-68
2022/04/19 21:35:54;;;;;;;10.48;8.40;;;;;;;;;;10438963;28;20053;-68
2022/04/19 21:40:57;;;;;;;8.23;7.43;;;;;;;;;;10435372;28;20056;-69
2022/04/19 21:46:01;;;;;;;10.15;8.20;;;;;;;;;;10437518;28;20103;-70
2022/04/19 21:51:03;;;;;;;12.27;9.15;;;;;;;;;;10435702;28;20403;-70
2022/04/19 21:56:06;;;;;;;11.02;8.88;;;;;;;;;;10436890;28;20068;-69
2022/04/19 22:01:19;;;;;;;13.88;10.55;;;;;;;;;;10436503;28;20382;-69
2022/04/19 22:06:21;;;;;;;16.30;11.38;;;;;;;;;;10436391;28;20060;-70
2022/04/19 22:11:24;;;;;;;13.32;11.00;;;;;;;;;;10437505;28;20344;-70
2022/04/19 22:16:27;;;;;;;18.52;12.40;;;;;;;;;;10432988;28;20053;-69
2022/04/19 22:21:30;;;;;;;15.07;11.10;;;;;;;;;;10436500;28;20081;-70
2022/04/19 22:26:32;;;;;;;11.85;9.27;;;;;;;;;;10436459;28;20374;-67
2022/04/19 22:31:37;;;;;;;15.43;10.65;;;;;;;;;;10437005;28;20048;-71
2022/04/19 22:36:39;;;;;;;10.18;9.18;;;;;;;;;;10434340;28;20052;-70
2022/04/19 22:41:41;;;;;;;15.48;10.73;;;;;;;;;;10433784;28;20088;-70
2022/04/19 22:46:45;;;;;;;16.63;10.43;;;;;;;;;;10431867;28;20053;-68
2022/04/19 22:51:47;;;;;;;13.90;11.00;;;;;;;;;;10431034;28;20088;-68
2022/04/19 22:56:49;;;;;;;15.43;11.70;;;;;;;;;;10434612;28;20061;-68
2022/04/19 23:01:53;;;;;;;14.77;11.20;;;;;;;;;;10435526;28;20041;-68
2022/04/19 23:06:55;;;;;;;14.32;11.20;;;;;;;;;;10434127;28;20042;-68
2022/04/19 23:11:58;;;;;;;16.77;11.50;;;;;;;;;;10432906;28;20045;-68
2022/04/19 23:17:02;;;;;;;16.00;11.45;;;;;;;;;;10433594;28;20057;-68
2022/04/19 23:22:05;;;;;;;15.43;11.80;;;;;;;;;;10432708;28;20291;-68
2022/04/19 23:32:25;;;;;;;18.92;13.35;;;;;;;;;;10424528;28;20050;-68
2022/04/19 23:37:28;;;;;;;23.02;15.18;;;;;;;;;;10432821;28;20052;-68
2022/04/19 23:42:30;;;;;;;23.27;16.58;;;;;;;;;;10430867;28;20060;-68
2022/04/19 23:47:34;;;;;;;22.98;15.93;;;;;;;;;;10433041;28;20064;-68
2022/04/19 23:52:37;;;;;;;23.58;14.90;;;;;;;;;;10432730;28;20037;-68
2022/04/19 23:57:39;;;;;;;21.42;14.70;;;;;;;;;;10432716;28;20046;-68
